Cervantes, Argentina
Current Conditions -  °F | °C
As of 3:00 AM on Sunday 21 Dec 2014 (Local Time) from SAZN Reporting Station
Clear Clear  
Wind Chill: 52°   Ceiling: Unl
Heat Index: 52°   Visibility: 6mi
Dew Point: 30°   Wind: 9mph
Humidity: 44%   Direction: 230°SW
Pressure: 29.97"   Gusts: NA
Location:  39.06°S, 67.34°W
Report Text: SAZN 210600Z 23008KT CAVOK 11/M01 Q1015
Loading
Personal Weather Stations






























Interactive Weather Map New forecast layout! Learn more

10-Day Weather Forecast

Advertisements
Track Severe Weather on mobile